Time;durP1;ratioP1;P1;durP2;ratioP2;P2;SDS_P1;SDS_P2;PMS_P1;PMS_P2;Temp;Humidity;BMP_temperature;BMP_pressure;BME280_temperature;BME280_humidity;BME280_pressure;Samples;Min_cycle;Max_cycle;Signal;HPM_P1;HPM_P2
2022/07/18 04:11:34;;;;;;;;;;;25.60;39.50;;;;;;5202743;23;19948;-82
2022/07/18 04:14:01;;;;;;;;;;;25.60;39.60;;;;;;4996150;28;19926;-82
2022/07/18 04:16:28;;;;;;;;;;;25.60;39.60;;;;;;4995844;28;19926;-82
2022/07/18 04:18:54;;;;;;;;;;;25.60;39.70;;;;;;4995832;28;19926;-82
2022/07/18 04:21:21;;;;;;;;;;;25.60;39.70;;;;;;4995947;28;19932;-82
2022/07/18 04:23:48;;;;;;;;;;;25.60;39.70;;;;;;4997142;28;20399;-81
2022/07/18 04:26:15;;;;;;;;;;;25.60;39.70;;;;;;4996837;28;19926;-81
2022/07/18 04:28:43;;;;;;;;;;;25.60;39.70;;;;;;4996840;28;20017;-76
2022/07/18 04:31:09;;;;;;;;;;;25.60;39.70;;;;;;4996797;28;20408;-76
2022/07/18 04:33:36;;;;;;;;;;;25.50;39.60;;;;;;4996162;28;20016;-77
2022/07/18 04:36:03;;;;;;;;;;;25.50;39.60;;;;;;4996001;28;19925;-77
2022/07/18 04:38:33;;;;;;;;;;;25.50;39.50;;;;;;4997449;28;19929;-78
2022/07/18 04:41:00;;;;;;;;;;;25.50;39.50;;;;;;4998440;28;20369;-78
2022/07/18 04:43:27;;;;;;;;;;;25.50;39.40;;;;;;4997889;28;19930;-78
2022/07/18 04:45:55;;;;;;;;;;;25.50;39.40;;;;;;4998022;28;20441;-80
2022/07/18 04:48:21;;;;;;;;;;;25.50;39.30;;;;;;4999510;28;20016;-77
2022/07/18 04:50:48;;;;;;;;;;;25.50;39.20;;;;;;4998171;28;20017;-78
2022/07/18 04:53:15;;;;;;;;;;;25.40;39.00;;;;;;4998004;28;19972;-80
2022/07/18 04:55:41;;;;;;;;;;;25.40;38.90;;;;;;4996783;28;19965;-79
2022/07/18 04:58:08;;;;;;;;;;;25.40;38.80;;;;;;4997631;28;19926;-79
2022/07/18 05:00:35;;;;;;;;;;;25.40;38.70;;;;;;4996235;28;19932;-77
2022/07/18 05:03:03;;;;;;;;;;;25.40;38.60;;;;;;4998798;28;20009;-79
2022/07/18 05:05:30;;;;;;;;;;;25.30;38.40;;;;;;4995789;28;19969;-79
2022/07/18 05:07:56;;;;;;;;;;;25.30;38.30;;;;;;4997918;28;19983;-76
2022/07/18 05:10:24;;;;;;;;;;;25.30;38.20;;;;;;4996256;28;19969;-76
2022/07/18 05:12:52;;;;;;;;;;;25.30;38.10;;;;;;4995467;28;19925;-76
2022/07/18 05:15:19;;;;;;;;;;;25.30;38.00;;;;;;4994765;28;20013;-76
2022/07/18 05:17:46;;;;;;;;;;;25.30;37.90;;;;;;4996083;28;20021;-79
2022/07/18 05:20:15;;;;;;;;;;;25.30;37.80;;;;;;4997880;28;20065;-79
2022/07/18 05:22:42;;;;;;;;;;;25.30;37.80;;;;;;4995904;28;19933;-79
2022/07/18 05:25:09;;;;;;;;;;;25.40;37.70;;;;;;4995648;28;19926;-80
2022/07/18 05:27:36;;;;;;;;;;;25.40;37.60;;;;;;4994960;28;20305;-80
2022/07/18 05:30:03;;;;;;;;;;;25.40;37.60;;;;;;4995231;28;19926;-79
2022/07/18 05:32:30;;;;;;;;;;;25.40;37.50;;;;;;4995478;28;20004;-79
2022/07/18 05:34:56;;;;;;;;;;;25.40;37.40;;;;;;4995653;28;19926;-79
2022/07/18 05:37:24;;;;;;;;;;;25.40;37.30;;;;;;4995792;28;20017;-79
2022/07/18 05:39:52;;;;;;;;;;;25.40;37.30;;;;;;4995154;28;20395;-79
2022/07/18 05:42:19;;;;;;;;;;;25.40;37.20;;;;;;4995376;28;20321;-79
2022/07/18 05:44:46;;;;;;;;;;;25.40;37.10;;;;;;4995556;28;19926;-79
2022/07/18 05:47:13;;;;;;;;;;;25.40;37.10;;;;;;4995351;28;19926;-79
2022/07/18 05:49:39;;;;;;;;;;;25.40;37.00;;;;;;4995235;28;19929;-79
2022/07/18 05:52:07;;;;;;;;;;;25.40;36.90;;;;;;4995542;28;19926;-79
2022/07/18 05:54:35;;;;;;;;;;;25.40;36.80;;;;;;4999633;28;19925;-79
2022/07/18 05:57:01;;;;;;;;;;;25.40;36.70;;;;;;4999665;28;19932;-79
2022/07/18 05:59:28;;;;;;;;;;;25.40;36.50;;;;;;4999609;28;19926;-80
2022/07/18 06:01:55;;;;;;;;;;;25.40;36.40;;;;;;4998891;28;20411;-80
2022/07/18 06:04:21;;;;;;;;;;;25.40;36.40;;;;;;5000389;28;19932;-80
2022/07/18 06:06:49;;;;;;;;;;;25.40;36.40;;;;;;5000087;28;19930;-80
2022/07/18 06:09:16;;;;;;;;;;;25.40;36.40;;;;;;4999770;28;19969;-80
2022/07/18 06:11:44;;;;;;;;;;;25.40;36.40;;;;;;4999184;28;19949;-80
2022/07/18 06:14:11;;;;;;;;;;;25.40;36.40;;;;;;4999469;28;20009;-80
2022/07/18 06:16:38;;;;;;;;;;;25.40;36.40;;;;;;4999824;28;19930;-81
2022/07/18 06:19:04;;;;;;;;;;;25.40;36.40;;;;;;4999885;28;20031;-80
2022/07/18 06:21:31;;;;;;;;;;;25.40;36.40;;;;;;4999558;28;19926;-80
2022/07/18 06:23:58;;;;;;;;;;;25.40;36.40;;;;;;4999894;28;19984;-80
2022/07/18 06:26:24;;;;;;;;;;;25.40;36.40;;;;;;4999521;28;19932;-79
2022/07/18 06:28:52;;;;;;;;;;;25.40;36.20;;;;;;4999621;28;20397;-79
2022/07/18 06:31:19;;;;;;;;;;;25.40;36.10;;;;;;4999299;28;20036;-79
2022/07/18 06:33:46;;;;;;;;;;;25.40;36.10;;;;;;4999258;28;19925;-79
2022/07/18 06:36:13;;;;;;;;;;;25.40;36.00;;;;;;4999646;28;19981;-80
2022/07/18 06:38:40;;;;;;;;;;;25.40;35.90;;;;;;5000409;28;20021;-80
2022/07/18 06:41:07;;;;;;;;;;;25.40;35.80;;;;;;4999729;28;19941;-80
2022/07/18 06:43:34;;;;;;;;;;;25.40;35.80;;;;;;5000841;28;19925;-80
2022/07/18 06:46:02;;;;;;;;;;;25.40;35.70;;;;;;4999932;28;20020;-80
2022/07/18 06:48:32;;;;;;;;;;;25.40;35.60;;;;;;4999377;28;20008;-80
2022/07/18 06:50:59;;;;;;;;;;;25.40;35.60;;;;;;5000147;28;19925;-80
2022/07/18 06:53:26;;;;;;;;;;;25.40;35.50;;;;;;4999635;28;19977;-80
2022/07/18 06:55:52;;;;;;;;;;;25.40;35.50;;;;;;4999723;28;20016;-79
2022/07/18 06:58:19;;;;;;;;;;;25.40;35.40;;;;;;5000442;28;19933;-80
2022/07/18 07:00:46;;;;;;;;;;;25.40;35.40;;;;;;4999930;28;19977;-82
2022/07/18 07:03:14;;;;;;;;;;;25.40;35.30;;;;;;5000361;28;20016;-82
2022/07/18 07:05:41;;;;;;;;;;;25.40;35.30;;;;;;5000953;28;20353;-82
2022/07/18 07:08:07;;;;;;;;;;;25.50;35.30;;;;;;5000077;28;19936;-83
2022/07/18 07:10:34;;;;;;;;;;;25.50;35.20;;;;;;5000709;28;20016;-83
2022/07/18 07:13:02;;;;;;;;;;;25.50;35.20;;;;;;5000155;28;19926;-82
2022/07/18 07:15:28;;;;;;;;;;;25.50;35.20;;;;;;5000055;28;19933;-82
2022/07/18 07:17:55;;;;;;;;;;;25.50;35.70;;;;;;5000297;28;20008;-82
2022/07/18 07:20:23;;;;;;;;;;;25.50;35.10;;;;;;5000043;28;20385;-82
2022/07/18 07:22:51;;;;;;;;;;;25.50;35.10;;;;;;5000397;28;20340;-82
2022/07/18 07:25:18;;;;;;;;;;;25.40;35.00;;;;;;4999332;28;20376;-82
2022/07/18 07:27:45;;;;;;;;;;;25.50;35.00;;;;;;4999575;28;19997;-82
2022/07/18 07:30:12;;;;;;;;;;;25.50;35.00;;;;;;5001083;28;20020;-81
2022/07/18 07:32:41;;;;;;;;;;;25.50;34.90;;;;;;5002266;28;20111;-81
2022/07/18 07:35:11;;;;;;;;;;;25.50;34.80;;;;;;5002396;28;19976;-81
2022/07/18 07:37:39;;;;;;;;;;;25.50;34.80;;;;;;5002508;28;19930;-82
2022/07/18 07:40:07;;;;;;;;;;;25.40;34.70;;;;;;5002656;28;19926;-81
2022/07/18 07:42:34;;;;;;;;;;;25.50;34.70;;;;;;5003334;28;20295;-81
2022/07/18 07:45:01;;;;;;;;;;;25.50;34.70;;;;;;5002115;28;19932;-81
2022/07/18 07:47:29;;;;;;;;;;;25.50;34.70;;;;;;5002128;28;20024;-81
2022/07/18 07:49:56;;;;;;;;;;;25.50;34.60;;;;;;5002984;28;19925;-82
2022/07/18 07:52:23;;;;;;;;;;;25.50;34.60;;;;;;5001926;28;19926;-81
2022/07/18 07:54:52;;;;;;;;;;;25.50;34.60;;;;;;5002438;28;19925;-82
2022/07/18 07:57:19;;;;;;;;;;;25.50;34.50;;;;;;5002387;28;20565;-82
2022/07/18 07:59:47;;;;;;;;;;;25.50;34.50;;;;;;5002986;28;19925;-82
2022/07/18 08:02:14;;;;;;;;;;;25.50;34.40;;;;;;5002391;28;19933;-82
2022/07/18 08:04:42;;;;;;;;;;;25.50;34.40;;;;;;5002069;28;19926;-82
2022/07/18 08:07:09;;;;;;;;;;;25.50;34.40;;;;;;5001874;28;19929;-82
2022/07/18 08:09:36;;;;;;;;;;;25.40;34.20;;;;;;5002329;28;19989;-81
2022/07/18 08:12:05;;;;;;;;;;;25.40;34.20;;;;;;5002785;28;20396;-81
2022/07/18 08:14:33;;;;;;;;;;;25.50;34.20;;;;;;5001630;28;19933;-81
2022/07/18 08:17:00;;;;;;;;;;;25.50;34.20;;;;;;5001478;28;19926;-81
2022/07/18 08:19:27;;;;;;;;;;;25.50;34.10;;;;;;5002053;28;19933;-81
2022/07/18 08:21:54;;;;;;;;;;;25.50;34.10;;;;;;5002418;28;19925;-81
2022/07/18 08:24:21;;;;;;;;;;;25.50;34.10;;;;;;5002943;28;20003;-81
2022/07/18 08:26:48;;;;;;;;;;;25.50;34.00;;;;;;5004852;28;19933;-81
2022/07/18 08:29:17;;;;;;;;;;;25.40;33.90;;;;;;5003051;28;20329;-81
2022/07/18 08:31:44;;;;;;;;;;;25.50;33.90;;;;;;5002216;28;19933;-81
2022/07/18 08:34:11;;;;;;;;;;;25.50;33.90;;;;;;5002425;28;19972;-81
2022/07/18 08:36:38;;;;;;;;;;;25.50;33.80;;;;;;5001633;28;19930;-81
2022/07/18 08:39:05;;;;;;;;;;;25.50;33.80;;;;;;5002151;28;19925;-82
2022/07/18 08:41:33;;;;;;;;;;;25.50;33.70;;;;;;4999990;28;20397;-81
2022/07/18 08:44:00;;;;;;;;;;;25.50;33.70;;;;;;5001393;28;19933;-81
2022/07/18 08:46:28;;;;;;;;;;;25.50;33.60;;;;;;5000124;28;19933;-81
2022/07/18 08:48:55;;;;;;;;;;;25.50;33.60;;;;;;4998823;28;20020;-81
2022/07/18 08:51:22;;;;;;;;;;;25.50;33.50;;;;;;4999430;28;20396;-82
2022/07/18 08:53:51;;;;;;;;;;;25.50;33.40;;;;;;4999563;28;19936;-82
2022/07/18 08:56:17;;;;;;;;;;;25.50;33.40;;;;;;4998802;28;20397;-82
2022/07/18 08:58:44;;;;;;;;;;;25.50;33.20;;;;;;4999552;28;19926;-82
2022/07/18 09:01:10;;;;;;;;;;;25.50;33.20;;;;;;4999418;28;20017;-82
2022/07/18 09:03:39;;;;;;;;;;;25.50;33.10;;;;;;4999040;28;19976;-81
2022/07/18 09:06:06;;;;;;;;;;;25.50;33.00;;;;;;4998078;28;19926;-80
2022/07/18 09:08:33;;;;;;;;;;;25.50;32.90;;;;;;4998250;28;19926;-81
2022/07/18 09:11:02;;;;;;;;;;;25.50;32.90;;;;;;4998895;28;19929;-81
2022/07/18 09:13:36;;;;;;;;;;;25.60;32.90;;;;;;4998420;28;20011;-81
2022/07/18 09:16:04;;;;;;;;;;;25.60;32.80;;;;;;4997296;28;20028;-81
2022/07/18 09:18:31;;;;;;;;;;;25.60;32.70;;;;;;4998010;28;20393;-81
2022/07/18 09:21:00;;;;;;;;;;;25.60;32.60;;;;;;4998906;28;19953;-81
2022/07/18 09:23:28;;;;;;;;;;;25.60;32.50;;;;;;4998386;28;19932;-81
2022/07/18 09:25:54;;;;;;;;;;;25.60;32.50;;;;;;4998119;28;19926;-82
2022/07/18 09:28:29;;;;;;;;;;;25.60;32.30;;;;;;5000453;28;19968;-81
2022/07/18 09:30:59;;;;;;;;;;;25.60;32.20;;;;;;5001942;28;19926;-81
2022/07/18 09:33:27;;;;;;;;;;;25.60;32.20;;;;;;5002324;28;19925;-81
2022/07/18 09:35:56;;;;;;;;;;;25.60;32.10;;;;;;5002678;28;19926;-81
2022/07/18 09:38:31;;;;;;;;;;;25.60;31.90;;;;;;5002236;28;19926;-81
2022/07/18 09:41:01;;;;;;;;;;;25.60;31.80;;;;;;5002008;28;19972;-81
2022/07/18 09:43:29;;;;;;;;;;;25.70;31.80;;;;;;5002258;28;19926;-81
2022/07/18 09:45:58;;;;;;;;;;;25.70;31.70;;;;;;5002023;28;20025;-81
2022/07/18 09:48:29;;;;;;;;;;;25.70;31.50;;;;;;5002279;28;19957;-81
2022/07/18 09:50:58;;;;;;;;;;;25.70;31.40;;;;;;5001481;28;20397;-81
2022/07/18 09:53:27;;;;;;;;;;;25.70;31.40;;;;;;5002118;28;20316;-81
2022/07/18 09:55:55;;;;;;;;;;;25.70;31.40;;;;;;5001803;28;20020;-80
2022/07/18 09:58:23;;;;;;;;;;;25.70;31.40;;;;;;5000537;28;19926;-81
2022/07/18 10:00:50;;;;;;;;;;;25.70;31.40;;;;;;5001770;28;19930;-81
2022/07/18 10:03:17;;;;;;;;;;;25.70;31.40;;;;;;5002176;28;20025;-81
2022/07/18 10:05:45;;;;;;;;;;;25.80;31.40;;;;;;5002786;28;20293;-81
2022/07/18 10:08:13;;;;;;;;;;;25.80;31.20;;;;;;5001776;28;20463;-81
2022/07/18 10:10:42;;;;;;;;;;;25.80;31.10;;;;;;5001620;28;20005;-81
2022/07/18 10:13:09;;;;;;;;;;;25.80;30.90;;;;;;5001605;28;19926;-81
2022/07/18 10:15:36;;;;;;;;;;;25.80;30.80;;;;;;5001231;28;19925;-81
2022/07/18 10:18:03;;;;;;;;;;;25.80;30.70;;;;;;5001193;28;20020;-81
2022/07/18 10:20:32;;;;;;;;;;;25.80;30.50;;;;;;5001748;28;20004;-81
2022/07/18 10:23:01;;;;;;;;;;;25.80;30.40;;;;;;5001633;28;19925;-81
2022/07/18 10:25:28;;;;;;;;;;;25.80;30.30;;;;;;5001252;28;20013;-81
2022/07/18 10:28:05;;;;;;;;;;;25.80;30.20;;;;;;5001150;28;20009;-82
2022/07/18 10:30:33;;;;;;;;;;;25.80;30.70;;;;;;5001213;28;20444;-81
2022/07/18 10:33:00;;;;;;;;;;;25.80;30.00;;;;;;5001014;28;19930;-81
2022/07/18 10:35:45;;;;;;;;;;;25.80;30.00;;;;;;5001038;28;20008;-81
2022/07/18 10:38:21;;;;;;;;;;;25.90;30.00;;;;;;5000391;28;19926;-80
2022/07/18 10:41:02;;;;;;;;;;;25.90;29.90;;;;;;5002646;28;19925;-81
2022/07/18 10:43:40;;;;;;;;;;;25.90;29.80;;;;;;5004563;28;20346;-80
2022/07/18 10:46:09;;;;;;;;;;;25.90;29.80;;;;;;5000816;28;19933;-80
2022/07/18 10:48:49;;;;;;;;;;;25.90;29.70;;;;;;5003122;28;20289;-80
2022/07/18 10:51:17;;;;;;;;;;;26.00;29.70;;;;;;5003472;28;19926;-80
2022/07/18 10:53:56;;;;;;;;;;;26.00;29.60;;;;;;5004153;28;19925;-80
2022/07/18 10:56:44;;;;;;;;;;;26.00;29.50;;;;;;5000844;28;20433;-80
2022/07/18 10:59:16;;;;;;;;;;;26.00;29.50;;;;;;5000665;28;20341;-81
2022/07/18 11:01:48;;;;;;;;;;;26.00;29.40;;;;;;5000014;28;19925;-81
2022/07/18 11:04:26;;;;;;;;;;;26.00;29.30;;;;;;5001052;28;20020;-81
2022/07/18 11:06:56;;;;;;;;;;;26.00;29.20;;;;;;5000778;28;20020;-81
2022/07/18 11:09:30;;;;;;;;;;;26.00;29.20;;;;;;5001395;28;19933;-81
2022/07/18 11:12:15;;;;;;;;;;;26.00;29.10;;;;;;5000971;28;19972;-81
2022/07/18 11:15:02;;;;;;;;;;;26.00;29.00;;;;;;5000831;28;19925;-81
2022/07/18 11:17:47;;;;;;;;;;;26.10;29.00;;;;;;5002152;28;20016;-82
2022/07/18 11:20:23;;;;;;;;;;;26.10;28.90;;;;;;5001780;28;19994;-82
2022/07/18 11:22:50;;;;;;;;;;;26.00;28.80;;;;;;5001758;28;20017;-82
2022/07/18 11:25:17;;;;;;;;;;;26.10;28.80;;;;;;5002545;28;19964;-82
2022/07/18 11:27:44;;;;;;;;;;;26.10;28.70;;;;;;5004556;28;20002;-82
2022/07/18 11:30:16;;;;;;;;;;;26.10;28.70;;;;;;5003003;28;20041;-82
2022/07/18 11:32:43;;;;;;;;;;;26.10;28.60;;;;;;5001515;28;20017;-82
2022/07/18 11:35:10;;;;;;;;;;;26.10;28.60;;;;;;5001660;28;20005;-82
2022/07/18 11:37:37;;;;;;;;;;;26.20;28.60;;;;;;5000389;28;20036;-82
2022/07/18 11:40:07;;;;;;;;;;;26.10;28.50;;;;;;4999917;28;19993;-81
2022/07/18 11:42:38;;;;;;;;;;;26.20;28.50;;;;;;5000519;28;19932;-82
2022/07/18 11:45:05;;;;;;;;;;;26.20;28.50;;;;;;5000634;28;19926;-82
2022/07/18 11:47:37;;;;;;;;;;;26.20;28.40;;;;;;5000541;28;20440;-82
2022/07/18 11:50:04;;;;;;;;;;;26.30;28.40;;;;;;4999444;28;20440;-81
2022/07/18 11:52:32;;;;;;;;;;;26.30;28.40;;;;;;5000377;28;19937;-82
2022/07/18 11:55:00;;;;;;;;;;;26.30;28.40;;;;;;5000737;28;19976;-83
2022/07/18 11:57:27;;;;;;;;;;;26.30;28.30;;;;;;5001124;28;20301;-82
2022/07/18 11:59:55;;;;;;;;;;;26.30;28.30;;;;;;5003166;28;19933;-83
2022/07/18 12:02:22;;;;;;;;;;;26.30;28.70;;;;;;5005234;28;19932;-83
2022/07/18 12:04:50;;;;;;;;;;;26.30;28.20;;;;;;5016991;28;19941;-83
2022/07/18 12:07:18;;;;;;;;;;;26.30;28.20;;;;;;5017177;28;19957;-83
2022/07/18 12:09:45;;;;;;;;;;;26.30;28.10;;;;;;5017009;28;19932;-83
2022/07/18 12:12:12;;;;;;;;;;;26.30;28.00;;;;;;5015481;28;19965;-83
2022/07/18 12:14:39;;;;;;;;;;;26.30;28.00;;;;;;5008746;28;19980;-83
2022/07/18 12:17:06;;;;;;;;;;;26.40;28.00;;;;;;5000001;28;19926;-83
2022/07/18 12:19:34;;;;;;;;;;;26.30;27.90;;;;;;5000021;28;19932;-83
2022/07/18 12:22:06;;;;;;;;;;;26.30;27.90;;;;;;5000082;28;20020;-83
2022/07/18 12:24:34;;;;;;;;;;;26.30;27.90;;;;;;5000162;28;19926;-83
2022/07/18 12:27:12;;;;;;;;;;;26.30;27.80;;;;;;4999845;28;20008;-83
2022/07/18 12:29:54;;;;;;;;;;;26.30;27.80;;;;;;4999754;28;20410;-83
2022/07/18 12:32:23;;;;;;;;;;;26.30;27.80;;;;;;4997590;28;19929;-83
2022/07/18 12:34:54;;;;;;;;;;;26.30;27.70;;;;;;4999528;28;20361;-83
2022/07/18 12:37:25;;;;;;;;;;;26.30;27.70;;;;;;4999747;28;20032;-83
2022/07/18 12:39:57;;;;;;;;;;;26.30;27.70;;;;;;4999275;28;20324;-82
2022/07/18 12:42:28;;;;;;;;;;;26.30;27.70;;;;;;4999212;28;20020;-83
2022/07/18 12:44:54;;;;;;;;;;;26.30;27.70;;;;;;4999162;28;20036;-82
2022/07/18 12:47:21;;;;;;;;;;;26.30;27.60;;;;;;4999073;28;19986;-82
2022/07/18 12:49:47;;;;;;;;;;;26.30;27.60;;;;;;4998488;28;20016;-82
2022/07/18 12:52:14;;;;;;;;;;;26.30;27.60;;;;;;4998634;28;19976;-82
2022/07/18 12:54:42;;;;;;;;;;;26.30;27.50;;;;;;4998628;28;20020;-83
2022/07/18 12:57:09;;;;;;;;;;;26.40;27.50;;;;;;4998265;28;20024;-83
2022/07/18 12:59:35;;;;;;;;;;;26.30;27.40;;;;;;4999498;28;19932;-83
2022/07/18 13:02:03;;;;;;;;;;;26.40;27.40;;;;;;4998596;28;20016;-83
2022/07/18 13:04:29;;;;;;;;;;;26.40;27.40;;;;;;4998651;28;20049;-83
2022/07/18 13:06:56;;;;;;;;;;;26.40;27.40;;;;;;4998428;28;19926;-83
2022/07/18 13:09:24;;;;;;;;;;;26.40;27.40;;;;;;4998714;28;19972;-83
2022/07/18 13:11:52;;;;;;;;;;;26.40;27.40;;;;;;4998350;28;20008;-83
2022/07/18 13:14:19;;;;;;;;;;;26.40;27.40;;;;;;4998590;28;19932;-83
2022/07/18 13:16:47;;;;;;;;;;;26.40;27.40;;;;;;4998599;28;20016;-83
2022/07/18 13:19:13;;;;;;;;;;;26.40;27.40;;;;;;4998361;28;19926;-83
2022/07/18 13:21:40;;;;;;;;;;;26.40;27.40;;;;;;4998528;28;20016;-83
2022/07/18 13:24:07;;;;;;;;;;;26.40;27.40;;;;;;4998657;28;19926;-83
2022/07/18 13:26:34;;;;;;;;;;;26.50;27.50;;;;;;4998997;28;20001;-83
2022/07/18 13:29:02;;;;;;;;;;;26.50;27.50;;;;;;4998665;28;19925;-83
2022/07/18 13:31:29;;;;;;;;;;;26.50;27.50;;;;;;4998690;28;19992;-83
2022/07/18 13:33:56;;;;;;;;;;;26.50;28.00;;;;;;4998949;28;19926;-83
2022/07/18 13:36:22;;;;;;;;;;;26.50;27.50;;;;;;4998706;28;19929;-83
2022/07/18 13:38:49;;;;;;;;;;;26.50;27.50;;;;;;4998998;28;20049;-83
2022/07/18 13:41:16;;;;;;;;;;;26.50;27.50;;;;;;4998528;28;19925;-83
2022/07/18 13:43:43;;;;;;;;;;;26.60;27.50;;;;;;4998778;28;19926;-83
2022/07/18 13:46:11;;;;;;;;;;;26.60;27.50;;;;;;4998943;28;19988;-83
2022/07/18 13:48:38;;;;;;;;;;;26.60;27.50;;;;;;4998419;28;20353;-83
2022/07/18 13:51:06;;;;;;;;;;;26.60;27.50;;;;;;4998000;28;19932;-83
2022/07/18 13:53:33;;;;;;;;;;;26.60;27.50;;;;;;4998475;28;20342;-83
2022/07/18 13:55:59;;;;;;;;;;;26.60;27.50;;;;;;4998512;28;20005;-83
2022/07/18 13:58:26;;;;;;;;;;;26.60;27.50;;;;;;4998891;28;20361;-83
2022/07/18 14:00:53;;;;;;;;;;;26.60;27.50;;;;;;4998862;28;20016;-83
2022/07/18 14:03:21;;;;;;;;;;;26.60;27.50;;;;;;4997914;28;20318;-83
2022/07/18 14:05:47;;;;;;;;;;;26.60;27.50;;;;;;4998472;28;20020;-83
2022/07/18 14:08:14;;;;;;;;;;;26.60;27.50;;;;;;4998646;28;20025;-83
2022/07/18 14:10:41;;;;;;;;;;;26.60;27.50;;;;;;4998682;28;19968;-83
2022/07/18 14:13:07;;;;;;;;;;;26.60;27.50;;;;;;4998665;28;20386;-83
2022/07/18 14:15:34;;;;;;;;;;;26.60;27.50;;;;;;5002267;28;19993;-83
2022/07/18 14:18:03;;;;;;;;;;;26.60;27.50;;;;;;5001927;28;19933;-83
2022/07/18 14:20:31;;;;;;;;;;;26.60;27.50;;;;;;5001074;28;19929;-83
2022/07/18 14:22:58;;;;;;;;;;;26.60;27.50;;;;;;5002317;28;20350;-83
2022/07/18 14:25:25;;;;;;;;;;;26.60;27.50;;;;;;5001808;28;20346;-82
2022/07/18 14:27:51;;;;;;;;;;;26.60;27.50;;;;;;5002259;28;20029;-83
2022/07/18 14:30:19;;;;;;;;;;;26.60;27.50;;;;;;5002109;28;20020;-82
2022/07/18 14:32:45;;;;;;;;;;;26.60;27.50;;;;;;5002254;28;19972;-83
2022/07/18 14:35:12;;;;;;;;;;;26.60;27.50;;;;;;5000948;28;19925;-81
2022/07/18 14:37:40;;;;;;;;;;;26.60;27.50;;;;;;4999545;28;20013;-81
2022/07/18 14:40:07;;;;;;;;;;;26.60;27.50;;;;;;4999667;28;19933;-81
2022/07/18 14:42:34;;;;;;;;;;;26.60;27.50;;;;;;5000166;28;19932;-81
2022/07/18 14:45:01;;;;;;;;;;;26.60;27.50;;;;;;5001175;28;19965;-81
2022/07/18 14:47:27;;;;;;;;;;;26.60;27.50;;;;;;5001121;28;19940;-82
2022/07/18 14:49:54;;;;;;;;;;;26.60;27.50;;;;;;4999996;28;19972;-82
2022/07/18 14:52:21;;;;;;;;;;;26.60;27.50;;;;;;5000428;28;19932;-81
2022/07/18 14:54:49;;;;;;;;;;;26.60;27.50;;;;;;5000143;28;19980;-82
2022/07/18 14:57:16;;;;;;;;;;;26.60;27.50;;;;;;4999790;28;19925;-81
2022/07/18 14:59:43;;;;;;;;;;;26.60;27.50;;;;;;4999580;28;20399;-81
2022/07/18 15:02:09;;;;;;;;;;;26.70;27.60;;;;;;5000138;28;19973;-81
2022/07/18 15:04:36;;;;;;;;;;;26.60;27.50;;;;;;5000677;28;19933;-80
2022/07/18 15:07:03;;;;;;;;;;;26.70;27.60;;;;;;5000792;28;19929;-80
2022/07/18 15:09:30;;;;;;;;;;;26.60;27.50;;;;;;5000526;28;19936;-80
2022/07/18 15:11:58;;;;;;;;;;;26.70;27.60;;;;;;5000409;28;20370;-80
2022/07/18 15:14:25;;;;;;;;;;;26.70;27.60;;;;;;5000213;28;20297;-81
2022/07/18 15:16:51;;;;;;;;;;;26.70;27.60;;;;;;5000250;28;20032;-80
2022/07/18 15:19:18;;;;;;;;;;;26.70;27.60;;;;;;5000045;28;20388;-81
2022/07/18 15:21:44;;;;;;;;;;;26.70;27.60;;;;;;5000088;28;20400;-81
2022/07/18 15:24:11;;;;;;;;;;;26.70;27.60;;;;;;4999854;28;19932;-81
2022/07/18 15:26:38;;;;;;;;;;;26.70;27.60;;;;;;4998785;28;20402;-80
2022/07/18 15:29:06;;;;;;;;;;;26.70;27.60;;;;;;5000072;28;19972;-81
2022/07/18 15:31:33;;;;;;;;;;;26.70;27.60;;;;;;4999899;28;19975;-80
2022/07/18 15:34:00;;;;;;;;;;;26.70;27.60;;;;;;4999861;28;20009;-81
2022/07/18 15:36:26;;;;;;;;;;;26.70;27.60;;;;;;4999779;28;19972;-81
2022/07/18 15:38:53;;;;;;;;;;;26.70;27.60;;;;;;5000274;28;19936;-81
2022/07/18 15:41:21;;;;;;;;;;;26.60;27.50;;;;;;4999959;28;19972;-81
2022/07/18 15:43:48;;;;;;;;;;;26.70;27.60;;;;;;5000671;28;19926;-81
2022/07/18 15:46:16;;;;;;;;;;;26.70;27.60;;;;;;5000853;28;19957;-81
2022/07/18 15:48:43;;;;;;;;;;;26.70;27.60;;;;;;5000199;28;19976;-81
2022/07/18 15:51:09;;;;;;;;;;;26.70;27.60;;;;;;4999885;28;19937;-81
2022/07/18 15:53:36;;;;;;;;;;;26.70;27.60;;;;;;4999690;28;20452;-81
2022/07/18 15:56:03;;;;;;;;;;;26.70;27.60;;;;;;5000460;28;20013;-82
2022/07/18 15:58:30;;;;;;;;;;;26.60;27.50;;;;;;4999591;28;20126;-81
2022/07/18 16:00:58;;;;;;;;;;;26.60;27.50;;;;;;4999839;28;19925;-81
2022/07/18 16:03:26;;;;;;;;;;;26.60;27.50;;;;;;4999845;28;19926;-81
2022/07/18 16:05:56;;;;;;;;;;;26.60;27.50;;;;;;4999811;28;19929;-81
2022/07/18 16:08:23;;;;;;;;;;;26.60;27.50;;;;;;5000137;28;19934;-81
2022/07/18 16:10:50;;;;;;;;;;;26.60;27.50;;;;;;4999577;28;20021;-82
2022/07/18 16:13:16;;;;;;;;;;;26.60;27.50;;;;;;5000075;28;19929;-82
2022/07/18 16:15:43;;;;;;;;;;;26.60;27.50;;;;;;4999679;28;19936;-82
2022/07/18 16:18:10;;;;;;;;;;;26.60;27.50;;;;;;4999873;28;19926;-82
2022/07/18 16:20:38;;;;;;;;;;;26.60;27.50;;;;;;4999986;28;20296;-82
2022/07/18 16:23:05;;;;;;;;;;;26.60;27.50;;;;;;4999499;28;19926;-84
2022/07/18 16:25:32;;;;;;;;;;;26.60;27.50;;;;;;5000653;28;19988;-82
2022/07/18 16:27:59;;;;;;;;;;;26.60;27.50;;;;;;4998794;28;19932;-82
2022/07/18 16:30:26;;;;;;;;;;;26.60;27.50;;;;;;4998578;28;20013;-81
2022/07/18 16:32:52;;;;;;;;;;;26.60;27.50;;;;;;4998150;28;19965;-82
2022/07/18 16:35:19;;;;;;;;;;;26.60;27.50;;;;;;4998358;28;19985;-82
2022/07/18 16:37:48;;;;;;;;;;;26.60;27.50;;;;;;4998109;28;19965;-81
2022/07/18 16:40:15;;;;;;;;;;;26.60;27.50;;;;;;4999792;28;19926;-82
2022/07/18 16:42:42;;;;;;;;;;;26.60;27.50;;;;;;4997926;28;19927;-82
2022/07/18 16:45:09;;;;;;;;;;;26.60;27.50;;;;;;4997833;28;20360;-81
2022/07/18 16:47:36;;;;;;;;;;;26.60;27.50;;;;;;4998750;28;19932;-84
2022/07/18 16:50:03;;;;;;;;;;;26.60;28.00;;;;;;4998691;28;20289;-83
2022/07/18 16:52:30;;;;;;;;;;;26.70;27.60;;;;;;4997820;28;19972;-81
2022/07/18 16:54:58;;;;;;;;;;;26.60;27.50;;;;;;4997262;28;19926;-81
2022/07/18 16:57:25;;;;;;;;;;;26.60;27.50;;;;;;4997854;28;19975;-81
2022/07/18 16:59:52;;;;;;;;;;;26.70;27.60;;;;;;4997290;28;19932;-81
2022/07/18 17:02:19;;;;;;;;;;;26.60;27.50;;;;;;4997387;28;19932;-81
2022/07/18 17:04:46;;;;;;;;;;;26.60;27.50;;;;;;4997234;28;20017;-81
2022/07/18 17:07:12;;;;;;;;;;;26.60;27.50;;;;;;4998015;28;20013;-83
2022/07/18 17:09:39;;;;;;;;;;;26.60;27.50;;;;;;4998623;28;19925;-83
2022/07/18 17:12:08;;;;;;;;;;;26.60;27.50;;;;;;4998658;28;20305;-83
2022/07/18 17:14:35;;;;;;;;;;;26.60;27.60;;;;;;4999201;28;19988;-83
2022/07/18 17:17:02;;;;;;;;;;;26.60;27.60;;;;;;4998898;28;20377;-83
2022/07/18 17:19:29;;;;;;;;;;;26.60;27.60;;;;;;4997011;28;19926;-82
2022/07/18 17:21:56;;;;;;;;;;;26.60;27.60;;;;;;4997421;28;19926;-83
2022/07/18 17:24:23;;;;;;;;;;;26.60;27.60;;;;;;4996876;28;19973;-81
2022/07/18 17:26:50;;;;;;;;;;;26.60;27.60;;;;;;4996937;28;20036;-81
2022/07/18 17:29:18;;;;;;;;;;;26.60;27.70;;;;;;4997219;28;20025;-81
2022/07/18 17:31:45;;;;;;;;;;;26.60;27.70;;;;;;4997117;28;20005;-82
2022/07/18 17:34:13;;;;;;;;;;;26.60;27.70;;;;;;4996341;28;19976;-81
2022/07/18 17:36:40;;;;;;;;;;;26.60;27.70;;;;;;4997803;28;20328;-81
2022/07/18 17:39:07;;;;;;;;;;;26.60;27.70;;;;;;4996786;28;20413;-81
2022/07/18 17:41:35;;;;;;;;;;;26.60;27.80;;;;;;5000418;28;19996;-80
2022/07/18 17:44:02;;;;;;;;;;;26.60;27.80;;;;;;5000780;28;19926;-81
2022/07/18 17:46:33;;;;;;;;;;;26.70;28.40;;;;;;5001295;28;19925;-80
2022/07/18 17:49:00;;;;;;;;;;;26.70;27.90;;;;;;5000358;28;20294;-80
2022/07/18 17:51:27;;;;;;;;;;;26.70;28.00;;;;;;5000908;28;20024;-80
2022/07/18 17:53:54;;;;;;;;;;;26.70;28.00;;;;;;5000322;28;19925;-78
2022/07/18 17:56:21;;;;;;;;;;;26.70;28.10;;;;;;4999465;28;19933;-78
2022/07/18 17:58:48;;;;;;;;;;;26.70;28.10;;;;;;4998823;28;19932;-78
2022/07/18 18:01:17;;;;;;;;;;;26.70;28.10;;;;;;4998694;28;19930;-77
2022/07/18 18:03:46;;;;;;;;;;;26.60;28.20;;;;;;4998894;28;19926;-77
2022/07/18 18:06:13;;;;;;;;;;;26.70;28.30;;;;;;4999182;28;20342;-78
2022/07/18 18:08:39;;;;;;;;;;;26.70;28.30;;;;;;4998178;28;19926;-77
2022/07/18 18:11:06;;;;;;;;;;;26.70;28.40;;;;;;5000483;28;19933;-81
2022/07/18 18:13:33;;;;;;;;;;;26.70;28.40;;;;;;5002180;28;20449;-81
2022/07/18 18:15:59;;;;;;;;;;;26.70;28.50;;;;;;5002529;28;20472;-81
2022/07/18 18:18:26;;;;;;;;;;;26.70;28.50;;;;;;5002215;28;20040;-81
2022/07/18 18:20:54;;;;;;;;;;;26.70;28.60;;;;;;5001785;28;19964;-81
2022/07/18 18:23:21;;;;;;;;;;;26.60;28.60;;;;;;5002834;28;19932;-82
2022/07/18 18:25:47;;;;;;;;;;;26.60;28.60;;;;;;5003048;28;19980;-82
2022/07/18 18:28:14;;;;;;;;;;;26.60;29.10;;;;;;5002352;28;19977;-84
2022/07/18 18:30:41;;;;;;;;;;;26.60;28.70;;;;;;5001938;28;20413;-80